sensor_id;sensor_type;location;lat;lon;timestamp;pressure;altitude;pressure_sealevel;temperature;humidity
59531;BME280;45349;48.692;8.186;2023-03-14T00:01:08;97058.53;;;10.45;98.80
59531;BME280;45349;48.692;8.186;2023-03-14T00:03:35;97062.56;;;10.47;95.75
59531;BME280;45349;48.692;8.186;2023-03-14T00:06:02;97059.38;;;10.52;95.72
59531;BME280;45349;48.692;8.186;2023-03-14T00:08:28;97044.81;;;10.58;95.47
59531;BME280;45349;48.692;8.186;2023-03-14T00:10:55;97047.41;;;10.58;94.83
59531;BME280;45349;48.692;8.186;2023-03-14T00:13:22;97031.34;;;10.61;92.14
59531;BME280;45349;48.692;8.186;2023-03-14T00:15:50;97041.78;;;10.61;93.73
59531;BME280;45349;48.692;8.186;2023-03-14T00:18:17;97035.34;;;10.57;94.07
59531;BME280;45349;48.692;8.186;2023-03-14T00:20:45;97029.53;;;10.55;94.47
59531;BME280;45349;48.692;8.186;2023-03-14T00:23:11;97035.91;;;10.52;95.87
59531;BME280;45349;48.692;8.186;2023-03-14T00:25:38;97035.91;;;10.52;96.14
59531;BME280;45349;48.692;8.186;2023-03-14T00:28:04;97041.78;;;10.61;93.60
59531;BME280;45349;48.692;8.186;2023-03-14T00:30:31;97049.59;;;10.61;94.49
59531;BME280;45349;48.692;8.186;2023-03-14T00:32:59;97063.84;;;10.58;96.16
59531;BME280;45349;48.692;8.186;2023-03-14T00:35:25;97070.28;;;10.56;95.88
59531;BME280;45349;48.692;8.186;2023-03-14T00:37:52;97075.88;;;10.53;98.20
59531;BME280;45349;48.692;8.186;2023-03-14T00:40:19;97095.78;;;10.60;96.53
59531;BME280;45349;48.692;8.186;2023-03-14T00:42:48;97105.81;;;10.57;97.58
59531;BME280;45349;48.692;8.186;2023-03-14T00:45:14;97109.78;;;10.53;98.59
59531;BME280;45349;48.692;8.186;2023-03-14T00:47:41;97097.16;;;10.56;97.73
59531;BME280;45349;48.692;8.186;2023-03-14T00:50:12;97094.13;;;10.53;98.35
59531;BME280;45349;48.692;8.186;2023-03-14T00:52:39;97109.97;;;10.51;99.09
59531;BME280;45349;48.692;8.186;2023-03-14T00:55:06;97115.91;;;10.45;98.58
59531;BME280;45349;48.692;8.186;2023-03-14T00:57:33;97092.06;;;10.48;97.08
59531;BME280;45349;48.692;8.186;2023-03-14T00:59:59;97102.34;;;10.50;97.84
59531;BME280;45349;48.692;8.186;2023-03-14T01:02:26;97076.41;;;10.48;95.80
59531;BME280;45349;48.692;8.186;2023-03-14T01:04:55;97080.63;;;10.49;95.89
59531;BME280;45349;48.692;8.186;2023-03-14T01:07:23;97077.63;;;10.45;97.49
59531;BME280;45349;48.692;8.186;2023-03-14T01:09:51;97060.91;;;10.40;98.28
59531;BME280;45349;48.692;8.186;2023-03-14T01:12:18;97051.81;;;10.36;99.16
59531;BME280;45349;48.692;8.186;2023-03-14T01:14:44;97049.31;;;10.27;99.88
59531;BME280;45349;48.692;8.186;2023-03-14T01:17:11;97048.28;;;10.22;98.61
59531;BME280;45349;48.692;8.186;2023-03-14T01:19:38;97047.47;;;10.21;98.97
59531;BME280;45349;48.692;8.186;2023-03-14T01:22:04;97056.66;;;10.17;100.00
59531;BME280;45349;48.692;8.186;2023-03-14T01:24:32;97045.59;;;10.15;99.43
59531;BME280;45349;48.692;8.186;2023-03-14T01:26:59;97043.44;;;10.18;97.27
59531;BME280;45349;48.692;8.186;2023-03-14T01:29:27;97028.78;;;10.17;97.82
59531;BME280;45349;48.692;8.186;2023-03-14T01:31:53;97032.56;;;10.15;98.02
59531;BME280;45349;48.692;8.186;2023-03-14T01:34:20;97032.78;;;10.13;98.24
59531;BME280;45349;48.692;8.186;2023-03-14T01:36:48;97016.13;;;10.14;97.36
59531;BME280;45349;48.692;8.186;2023-03-14T01:39:15;97014.06;;;10.10;97.68
59531;BME280;45349;48.692;8.186;2023-03-14T01:41:43;97017.25;;;10.05;97.28
59531;BME280;45349;48.692;8.186;2023-03-14T01:44:10;97020.06;;;10.03;97.53
59531;BME280;45349;48.692;8.186;2023-03-14T01:46:38;97012.41;;;10.02;96.31
59531;BME280;45349;48.692;8.186;2023-03-14T01:49:10;96995.16;;;10.01;96.27
59531;BME280;45349;48.692;8.186;2023-03-14T01:51:44;97008.78;;;9.96;97.29
59531;BME280;45349;48.692;8.186;2023-03-14T01:54:17;96996.59;;;10.03;95.00
59531;BME280;45349;48.692;8.186;2023-03-14T01:56:50;97018.00;;;9.99;95.88
59531;BME280;45349;48.692;8.186;2023-03-14T01:59:19;97019.97;;;9.97;96.50
59531;BME280;45349;48.692;8.186;2023-03-14T02:01:47;97011.78;;;10.00;96.48
59531;BME280;45349;48.692;8.186;2023-03-14T02:04:17;97022.97;;;9.94;96.27
59531;BME280;45349;48.692;8.186;2023-03-14T02:06:50;97029.00;;;9.94;95.35
59531;BME280;45349;48.692;8.186;2023-03-14T02:09:20;97027.38;;;9.93;95.35
59531;BME280;45349;48.692;8.186;2023-03-14T02:11:49;97011.53;;;9.95;95.21
59531;BME280;45349;48.692;8.186;2023-03-14T02:14:36;96997.88;;;9.93;95.98
59531;BME280;45349;48.692;8.186;2023-03-14T02:17:24;96995.72;;;9.96;95.53
59531;BME280;45349;48.692;8.186;2023-03-14T02:20:26;97012.38;;;9.95;94.59
59531;BME280;45349;48.692;8.186;2023-03-14T02:22:58;96985.31;;;9.96;94.87
59531;BME280;45349;48.692;8.186;2023-03-14T02:25:34;96975.44;;;9.92;94.50
59531;BME280;45349;48.692;8.186;2023-03-14T02:28:06;96983.44;;;9.90;95.26
59531;BME280;45349;48.692;8.186;2023-03-14T02:30:33;96978.00;;;9.85;94.93
59531;BME280;45349;48.692;8.186;2023-03-14T02:33:02;96988.22;;;9.86;95.20
59531;BME280;45349;48.692;8.186;2023-03-14T02:35:34;96994.78;;;9.82;94.11
59531;BME280;45349;48.692;8.186;2023-03-14T02:38:06;96969.19;;;9.86;92.35
59531;BME280;45349;48.692;8.186;2023-03-14T02:40:38;96983.00;;;9.86;92.55
59531;BME280;45349;48.692;8.186;2023-03-14T02:43:07;96987.22;;;9.87;92.43
59531;BME280;45349;48.692;8.186;2023-03-14T02:45:43;96986.59;;;9.85;91.20
59531;BME280;45349;48.692;8.186;2023-03-14T02:48:16;96986.47;;;9.94;90.21
59531;BME280;45349;48.692;8.186;2023-03-14T02:50:47;96963.22;;;9.92;90.72
59531;BME280;45349;48.692;8.186;2023-03-14T02:53:17;96964.38;;;9.89;90.48
59531;BME280;45349;48.692;8.186;2023-03-14T02:55:46;96964.84;;;9.93;88.46
59531;BME280;45349;48.692;8.186;2023-03-14T02:58:16;96947.75;;;9.90;90.51
59531;BME280;45349;48.692;8.186;2023-03-14T03:00:44;96952.34;;;9.88;89.77
59531;BME280;45349;48.692;8.186;2023-03-14T03:03:12;96929.50;;;9.90;88.75
59531;BME280;45349;48.692;8.186;2023-03-14T03:05:40;96924.91;;;9.93;88.74
59531;BME280;45349;48.692;8.186;2023-03-14T03:08:08;96929.34;;;9.92;86.62
59531;BME280;45349;48.692;8.186;2023-03-14T03:10:36;96928.97;;;9.95;86.21
59531;BME280;45349;48.692;8.186;2023-03-14T03:13:03;96916.09;;;9.94;84.95
59531;BME280;45349;48.692;8.186;2023-03-14T03:15:31;96920.53;;;9.93;85.18
59531;BME280;45349;48.692;8.186;2023-03-14T03:17:58;96921.38;;;10.00;82.86
59531;BME280;45349;48.692;8.186;2023-03-14T03:20:25;96906.78;;;10.06;83.45
59531;BME280;45349;48.692;8.186;2023-03-14T03:22:51;96912.75;;;10.00;83.70
59531;BME280;45349;48.692;8.186;2023-03-14T03:25:18;96894.25;;;9.95;83.38
59531;BME280;45349;48.692;8.186;2023-03-14T03:27:45;96895.25;;;9.94;84.90
59531;BME280;45349;48.692;8.186;2023-03-14T03:30:14;96900.06;;;9.90;83.69
59531;BME280;45349;48.692;8.186;2023-03-14T03:32:43;96892.41;;;9.88;83.67
59531;BME280;45349;48.692;8.186;2023-03-14T03:35:11;96891.63;;;9.88;83.61
59531;BME280;45349;48.692;8.186;2023-03-14T03:37:38;96889.81;;;9.88;82.43
59531;BME280;45349;48.692;8.186;2023-03-14T03:40:06;96882.34;;;9.85;83.24
59531;BME280;45349;48.692;8.186;2023-03-14T03:42:35;96886.78;;;9.85;82.99
59531;BME280;45349;48.692;8.186;2023-03-14T03:45:05;96883.97;;;9.86;81.57
59531;BME280;45349;48.692;8.186;2023-03-14T03:47:35;96889.19;;;9.86;82.80
59531;BME280;45349;48.692;8.186;2023-03-14T03:50:04;96863.75;;;9.88;81.48
59531;BME280;45349;48.692;8.186;2023-03-14T03:52:31;96870.75;;;9.88;81.99
59531;BME280;45349;48.692;8.186;2023-03-14T03:54:58;96873.38;;;9.88;81.89
59531;BME280;45349;48.692;8.186;2023-03-14T03:57:27;96867.16;;;9.89;81.29
59531;BME280;45349;48.692;8.186;2023-03-14T03:59:53;96859.16;;;9.90;81.55
59531;BME280;45349;48.692;8.186;2023-03-14T04:02:20;96873.38;;;9.88;81.03
59531;BME280;45349;48.692;8.186;2023-03-14T04:04:48;96858.72;;;9.87;81.68
59531;BME280;45349;48.692;8.186;2023-03-14T04:07:17;96863.13;;;9.86;82.27
59531;BME280;45349;48.692;8.186;2023-03-14T04:09:44;96862.13;;;9.87;81.53
59531;BME280;45349;48.692;8.186;2023-03-14T04:12:22;96853.66;;;9.79;83.15
59531;BME280;45349;48.692;8.186;2023-03-14T04:15:04;96850.19;;;9.71;85.05
59531;BME280;45349;48.692;8.186;2023-03-14T04:17:31;96840.94;;;9.69;85.59
59531;BME280;45349;48.692;8.186;2023-03-14T04:19:58;96828.34;;;9.72;82.80
59531;BME280;45349;48.692;8.186;2023-03-14T04:22:34;96818.34;;;9.76;82.14
59531;BME280;45349;48.692;8.186;2023-03-14T04:25:00;96839.03;;;9.78;82.29
59531;BME280;45349;48.692;8.186;2023-03-14T04:27:31;96825.38;;;9.75;82.25
59531;BME280;45349;48.692;8.186;2023-03-14T04:29:59;96845.22;;;9.77;82.47
59531;BME280;45349;48.692;8.186;2023-03-14T04:32:46;96841.25;;;9.81;83.03
59531;BME280;45349;48.692;8.186;2023-03-14T04:35:13;96834.84;;;9.83;81.91
59531;BME280;45349;48.692;8.186;2023-03-14T04:37:41;96826.41;;;9.81;82.09
59531;BME280;45349;48.692;8.186;2023-03-14T04:40:10;96816.97;;;9.80;82.59
59531;BME280;45349;48.692;8.186;2023-03-14T04:42:37;96818.22;;;9.84;82.37
59531;BME280;45349;48.692;8.186;2023-03-14T04:45:05;96807.78;;;9.84;81.20
59531;BME280;45349;48.692;8.186;2023-03-14T04:47:33;96811.00;;;9.86;82.76
59531;BME280;45349;48.692;8.186;2023-03-14T04:50:03;96823.63;;;9.83;82.47
59531;BME280;45349;48.692;8.186;2023-03-14T04:52:29;96816.59;;;9.83;83.56
59531;BME280;45349;48.692;8.186;2023-03-14T04:54:59;96821.81;;;9.83;82.60
59531;BME280;45349;48.692;8.186;2023-03-14T04:57:26;96808.78;;;9.83;82.65
59531;BME280;45349;48.692;8.186;2023-03-14T04:59:54;96807.56;;;9.79;83.14
59531;BME280;45349;48.692;8.186;2023-03-14T05:02:44;96808.53;;;9.78;82.38
59531;BME280;45349;48.692;8.186;2023-03-14T05:05:20;96805.16;;;9.78;83.50
59531;BME280;45349;48.692;8.186;2023-03-14T05:08:05;96800.97;;;9.83;81.21
59531;BME280;45349;48.692;8.186;2023-03-14T05:10:41;96798.56;;;9.82;83.72
59531;BME280;45349;48.692;8.186;2023-03-14T05:13:31;96797.50;;;9.76;84.64
59531;BME280;45349;48.692;8.186;2023-03-14T05:16:11;96792.28;;;9.76;83.32
59531;BME280;45349;48.692;8.186;2023-03-14T05:19:00;96787.91;;;9.77;83.37
59531;BME280;45349;48.692;8.186;2023-03-14T05:21:44;96798.88;;;9.72;83.18
59531;BME280;45349;48.692;8.186;2023-03-14T05:24:14;96775.25;;;9.73;81.65
59531;BME280;45349;48.692;8.186;2023-03-14T05:27:11;96791.28;;;9.70;82.51
59531;BME280;45349;48.692;8.186;2023-03-14T05:29:41;96779.41;;;9.68;82.13
59531;BME280;45349;48.692;8.186;2023-03-14T05:32:26;96773.59;;;9.66;83.34
59531;BME280;45349;48.692;8.186;2023-03-14T05:35:11;96776.78;;;9.61;83.99
59531;BME280;45349;48.692;8.186;2023-03-14T05:37:45;96764.16;;;9.65;82.93
59531;BME280;45349;48.692;8.186;2023-03-14T05:40:33;96759.78;;;9.65;83.57
59531;BME280;45349;48.692;8.186;2023-03-14T05:43:10;96755.94;;;9.61;84.23
59531;BME280;45349;48.692;8.186;2023-03-14T05:45:57;96754.50;;;9.58;83.43
59531;BME280;45349;48.692;8.186;2023-03-14T05:48:41;96756.03;;;9.74;81.51
59531;BME280;45349;48.692;8.186;2023-03-14T05:51:23;96740.56;;;9.73;81.23
59531;BME280;45349;48.692;8.186;2023-03-14T05:54:00;96734.75;;;9.71;80.88
59531;BME280;45349;48.692;8.186;2023-03-14T05:56:44;96734.75;;;9.71;81.91
59531;BME280;45349;48.692;8.186;2023-03-14T05:59:26;96727.13;;;9.69;80.24
59531;BME280;45349;48.692;8.186;2023-03-14T06:02:08;96715.88;;;9.62;81.38
59531;BME280;45349;48.692;8.186;2023-03-14T06:04:47;96705.44;;;9.62;81.89
59531;BME280;45349;48.692;8.186;2023-03-14T06:07:14;96719.50;;;9.68;80.66
59531;BME280;45349;48.692;8.186;2023-03-14T06:09:41;96710.69;;;9.69;81.15
59531;BME280;45349;48.692;8.186;2023-03-14T06:12:08;96722.94;;;9.75;81.42
59531;BME280;45349;48.692;8.186;2023-03-14T06:14:42;96719.78;;;9.80;81.52
59531;BME280;45349;48.692;8.186;2023-03-14T06:17:08;96709.91;;;9.75;81.49
59531;BME280;45349;48.692;8.186;2023-03-14T06:19:42;96704.47;;;9.70;80.74
59531;BME280;45349;48.692;8.186;2023-03-14T06:22:12;96692.97;;;9.57;84.21
59531;BME280;45349;48.692;8.186;2023-03-14T06:24:39;96706.38;;;9.48;84.89
59531;BME280;45349;48.692;8.186;2023-03-14T06:27:06;96721.81;;;9.49;85.89
59531;BME280;45349;48.692;8.186;2023-03-14T06:29:33;96717.63;;;9.55;84.71
59531;BME280;45349;48.692;8.186;2023-03-14T06:32:02;96701.25;;;9.68;82.04
59531;BME280;45349;48.692;8.186;2023-03-14T06:34:29;96713.53;;;9.74;82.88
59531;BME280;45349;48.692;8.186;2023-03-14T06:36:56;96714.97;;;9.83;81.49
59531;BME280;45349;48.692;8.186;2023-03-14T06:39:23;96714.59;;;9.86;81.39
59531;BME280;45349;48.692;8.186;2023-03-14T06:41:59;96710.81;;;9.96;82.03
59531;BME280;45349;48.692;8.186;2023-03-14T06:44:26;96710.81;;;9.96;81.35
59531;BME280;45349;48.692;8.186;2023-03-14T06:46:53;96720.47;;;10.09;79.93
59531;BME280;45349;48.692;8.186;2023-03-14T06:49:21;96707.44;;;10.09;81.31
59531;BME280;45349;48.692;8.186;2023-03-14T06:51:51;96702.44;;;10.14;79.47
59531;BME280;45349;48.692;8.186;2023-03-14T06:54:18;96704.06;;;10.15;79.28
59531;BME280;45349;48.692;8.186;2023-03-14T06:56:45;96699.09;;;10.33;77.13
59531;BME280;45349;48.692;8.186;2023-03-14T06:59:13;96691.72;;;10.37;77.68
59531;BME280;45349;48.692;8.186;2023-03-14T07:01:40;96704.59;;;10.45;77.28
59531;BME280;45349;48.692;8.186;2023-03-14T07:04:10;96720.47;;;10.51;75.75
59531;BME280;45349;48.692;8.186;2023-03-14T07:06:42;96707.41;;;10.51;75.77
59531;BME280;45349;48.692;8.186;2023-03-14T07:09:09;96706.38;;;10.45;75.17
59531;BME280;45349;48.692;8.186;2023-03-14T07:11:40;96725.06;;;10.48;76.40
59531;BME280;45349;48.692;8.186;2023-03-14T07:14:07;96729.72;;;10.60;74.90
59531;BME280;45349;48.692;8.186;2023-03-14T07:16:33;96716.44;;;10.48;76.15
59531;BME280;45349;48.692;8.186;2023-03-14T07:19:01;96711.75;;;10.37;75.99
59531;BME280;45349;48.692;8.186;2023-03-14T07:21:28;96711.44;;;10.46;76.01
59531;BME280;45349;48.692;8.186;2023-03-14T07:23:56;96726.84;;;10.41;76.67
59531;BME280;45349;48.692;8.186;2023-03-14T07:26:23;96720.97;;;10.26;78.53
59531;BME280;45349;48.692;8.186;2023-03-14T07:28:51;96705.53;;;10.31;76.02
59531;BME280;45349;48.692;8.186;2023-03-14T07:31:19;96713.16;;;10.32;76.75
59531;BME280;45349;48.692;8.186;2023-03-14T07:33:46;96710.59;;;10.46;75.24
59531;BME280;45349;48.692;8.186;2023-03-14T07:36:13;96716.84;;;10.65;75.00
59531;BME280;45349;48.692;8.186;2023-03-14T07:38:42;96727.53;;;10.84;74.33
59531;BME280;45349;48.692;8.186;2023-03-14T07:41:46;96726.34;;;11.00;73.19
59531;BME280;45349;48.692;8.186;2023-03-14T07:44:41;96720.31;;;10.92;72.07
59531;BME280;45349;48.692;8.186;2023-03-14T07:47:07;96729.75;;;10.93;70.98
59531;BME280;45349;48.692;8.186;2023-03-14T07:49:34;96696.63;;;11.01;72.42
59531;BME280;45349;48.692;8.186;2023-03-14T07:52:01;96720.09;;;11.14;72.71
59531;BME280;45349;48.692;8.186;2023-03-14T07:54:27;96732.75;;;11.24;72.50
59531;BME280;45349;48.692;8.186;2023-03-14T07:56:56;96740.00;;;11.35;70.45
59531;BME280;45349;48.692;8.186;2023-03-14T07:59:24;96738.34;;;11.55;68.54
59531;BME280;45349;48.692;8.186;2023-03-14T08:01:50;96736.16;;;11.45;70.87
59531;BME280;45349;48.692;8.186;2023-03-14T08:04:17;96740.38;;;11.52;70.09
59531;BME280;45349;48.692;8.186;2023-03-14T08:06:43;96720.66;;;11.57;69.87
59531;BME280;45349;48.692;8.186;2023-03-14T08:09:10;96754.06;;;11.34;70.78
59531;BME280;45349;48.692;8.186;2023-03-14T08:11:37;96749.44;;;11.36;71.46
59531;BME280;45349;48.692;8.186;2023-03-14T08:14:05;96758.47;;;11.41;72.39
59531;BME280;45349;48.692;8.186;2023-03-14T08:16:31;96753.03;;;11.42;71.09
59531;BME280;45349;48.692;8.186;2023-03-14T08:18:58;96771.13;;;11.44;70.23
59531;BME280;45349;48.692;8.186;2023-03-14T08:21:24;96770.91;;;11.18;71.31
59531;BME280;45349;48.692;8.186;2023-03-14T08:23:51;96759.06;;;11.36;71.30
59531;BME280;45349;48.692;8.186;2023-03-14T08:26:17;96783.78;;;11.54;71.45
59531;BME280;45349;48.692;8.186;2023-03-14T08:28:44;96768.91;;;11.47;73.22
59531;BME280;45349;48.692;8.186;2023-03-14T08:31:12;96773.53;;;11.45;72.85
59531;BME280;45349;48.692;8.186;2023-03-14T08:33:39;96772.53;;;11.46;70.55
59531;BME280;45349;48.692;8.186;2023-03-14T08:36:06;96773.75;;;11.57;71.38
59531;BME280;45349;48.692;8.186;2023-03-14T08:38:33;96799.25;;;11.48;72.44
59531;BME280;45349;48.692;8.186;2023-03-14T08:41:01;96789.81;;;11.61;70.00
59531;BME280;45349;48.692;8.186;2023-03-14T08:43:29;96800.84;;;11.63;71.59
59531;BME280;45349;48.692;8.186;2023-03-14T08:45:57;96806.09;;;11.56;71.23
59531;BME280;45349;48.692;8.186;2023-03-14T08:48:25;96797.44;;;11.62;70.95
59531;BME280;45349;48.692;8.186;2023-03-14T08:50:52;96809.06;;;11.87;70.75
59531;BME280;45349;48.692;8.186;2023-03-14T08:53:18;96810.28;;;11.84;73.10
59531;BME280;45349;48.692;8.186;2023-03-14T08:55:47;96792.97;;;11.83;71.38
59531;BME280;45349;48.692;8.186;2023-03-14T08:58:18;96803.84;;;11.66;72.44
59531;BME280;45349;48.692;8.186;2023-03-14T09:00:44;96814.75;;;11.63;74.47
59531;BME280;45349;48.692;8.186;2023-03-14T09:03:11;96825.97;;;11.37;73.15
59531;BME280;45349;48.692;8.186;2023-03-14T09:05:39;96823.56;;;11.42;73.29
59531;BME280;45349;48.692;8.186;2023-03-14T09:08:06;96822.38;;;11.45;72.40
59531;BME280;45349;48.692;8.186;2023-03-14T09:10:32;96818.34;;;11.56;72.04
59531;BME280;45349;48.692;8.186;2023-03-14T09:12:59;96814.94;;;11.62;71.29
59531;BME280;45349;48.692;8.186;2023-03-14T09:15:26;96813.28;;;11.81;71.52
59531;BME280;45349;48.692;8.186;2023-03-14T09:17:52;96824.38;;;11.76;70.52
59531;BME280;45349;48.692;8.186;2023-03-14T09:20:19;96812.06;;;11.90;69.99
59531;BME280;45349;48.692;8.186;2023-03-14T09:22:47;96810.44;;;12.16;69.23
59531;BME280;45349;48.692;8.186;2023-03-14T09:25:13;96809.47;;;12.04;67.88
59531;BME280;45349;48.692;8.186;2023-03-14T09:27:40;96816.81;;;12.34;67.21
59531;BME280;45349;48.692;8.186;2023-03-14T09:30:08;96803.09;;;12.38;66.74
59531;BME280;45349;48.692;8.186;2023-03-14T09:32:35;96835.63;;;12.04;66.18
59531;BME280;45349;48.692;8.186;2023-03-14T09:35:02;96811.72;;;11.60;68.88
59531;BME280;45349;48.692;8.186;2023-03-14T09:37:29;96816.94;;;11.73;68.48
59531;BME280;45349;48.692;8.186;2023-03-14T09:39:56;96823.34;;;11.84;68.87
59531;BME280;45349;48.692;8.186;2023-03-14T09:42:26;96817.09;;;11.85;69.03
59531;BME280;45349;48.692;8.186;2023-03-14T09:44:56;96828.78;;;11.96;71.27
59531;BME280;45349;48.692;8.186;2023-03-14T09:47:24;96834.00;;;11.96;72.17
59531;BME280;45349;48.692;8.186;2023-03-14T09:49:51;96839.03;;;11.71;71.15
59531;BME280;45349;48.692;8.186;2023-03-14T09:52:22;96846.50;;;11.54;73.60
59531;BME280;45349;48.692;8.186;2023-03-14T09:54:51;96843.88;;;11.60;76.56
59531;BME280;45349;48.692;8.186;2023-03-14T09:57:23;96848.31;;;11.53;75.13
59531;BME280;45349;48.692;8.186;2023-03-14T09:59:52;96852.91;;;11.44;75.10
59531;BME280;45349;48.692;8.186;2023-03-14T10:02:22;96863.13;;;11.19;81.01
59531;BME280;45349;48.692;8.186;2023-03-14T10:04:51;96856.22;;;10.84;83.75
59531;BME280;45349;48.692;8.186;2023-03-14T10:07:21;96878.78;;;10.50;84.91
59531;BME280;45349;48.692;8.186;2023-03-14T10:09:50;96877.63;;;10.66;85.38
59531;BME280;45349;48.692;8.186;2023-03-14T10:12:18;96900.34;;;10.72;87.53
59531;BME280;45349;48.692;8.186;2023-03-14T10:14:48;96890.81;;;10.51;89.50
59531;BME280;45349;48.692;8.186;2023-03-14T10:17:16;96883.06;;;10.65;90.03
59531;BME280;45349;48.692;8.186;2023-03-14T10:19:54;96884.94;;;10.14;92.34
59531;BME280;45349;48.692;8.186;2023-03-14T10:22:23;96892.25;;;10.25;94.53
59531;BME280;45349;48.692;8.186;2023-03-14T10:24:53;96884.53;;;10.10;95.07
59531;BME280;45349;48.692;8.186;2023-03-14T10:27:23;96875.81;;;10.25;95.45
59531;BME280;45349;48.692;8.186;2023-03-14T10:29:56;96890.06;;;10.29;92.59
59531;BME280;45349;48.692;8.186;2023-03-14T10:32:30;96891.22;;;10.19;92.15
59531;BME280;45349;48.692;8.186;2023-03-14T10:35:20;96885.97;;;10.41;95.95
59531;BME280;45349;48.692;8.186;2023-03-14T10:37:50;96893.19;;;10.39;94.84
59531;BME280;45349;48.692;8.186;2023-03-14T10:40:18;96894.63;;;9.92;98.62
59531;BME280;45349;48.692;8.186;2023-03-14T10:42:44;96905.81;;;10.14;99.35
59531;BME280;45349;48.692;8.186;2023-03-14T10:45:29;96896.47;;;9.98;95.94
59531;BME280;45349;48.692;8.186;2023-03-14T10:48:06;96924.75;;;9.94;98.15
59531;BME280;45349;48.692;8.186;2023-03-14T10:50:48;96909.38;;;9.78;97.65
59531;BME280;45349;48.692;8.186;2023-03-14T10:53:16;96938.53;;;9.66;99.15
59531;BME280;45349;48.692;8.186;2023-03-14T10:55:44;96941.50;;;9.63;98.24
59531;BME280;45349;48.692;8.186;2023-03-14T10:58:19;96957.50;;;9.60;100.00
59531;BME280;45349;48.692;8.186;2023-03-14T11:00:51;96957.69;;;9.58;100.00
59531;BME280;45349;48.692;8.186;2023-03-14T11:03:20;96957.47;;;9.53;100.00
59531;BME280;45349;48.692;8.186;2023-03-14T11:05:52;96971.41;;;9.67;99.66
59531;BME280;45349;48.692;8.186;2023-03-14T11:08:24;96965.94;;;9.62;100.00
59531;BME280;45349;48.692;8.186;2023-03-14T11:10:54;96969.34;;;9.41;100.00
59531;BME280;45349;48.692;8.186;2023-03-14T11:13:25;96998.16;;;9.39;100.00
59531;BME280;45349;48.692;8.186;2023-03-14T11:16:06;97044.88;;;9.26;100.00
59531;BME280;45349;48.692;8.186;2023-03-14T11:18:57;97061.69;;;8.78;100.00
59531;BME280;45349;48.692;8.186;2023-03-14T11:21:29;97120.59;;;8.71;100.00
59531;BME280;45349;48.692;8.186;2023-03-14T11:24:13;97133.69;;;8.63;100.00
59531;BME280;45349;48.692;8.186;2023-03-14T11:26:48;97144.47;;;8.75;100.00
59531;BME280;45349;48.692;8.186;2023-03-14T11:29:22;97135.16;;;8.80;100.00
59531;BME280;45349;48.692;8.186;2023-03-14T11:31:55;97192.63;;;8.70;100.00
59531;BME280;45349;48.692;8.186;2023-03-14T11:34:28;97160.38;;;8.56;98.04
59531;BME280;45349;48.692;8.186;2023-03-14T11:36:59;97183.66;;;8.50;98.02
59531;BME280;45349;48.692;8.186;2023-03-14T11:39:29;97204.97;;;8.45;90.74
59531;BME280;45349;48.692;8.186;2023-03-14T11:42:01;97224.78;;;8.54;86.91
59531;BME280;45349;48.692;8.186;2023-03-14T11:44:32;97236.00;;;8.47;84.21
59531;BME280;45349;48.692;8.186;2023-03-14T11:47:04;97253.06;;;8.49;81.76
59531;BME280;45349;48.692;8.186;2023-03-14T11:49:36;97255.34;;;8.52;77.89
59531;BME280;45349;48.692;8.186;2023-03-14T11:52:08;97246.91;;;8.74;74.08
59531;BME280;45349;48.692;8.186;2023-03-14T11:54:41;97255.38;;;8.99;73.57
59531;BME280;45349;48.692;8.186;2023-03-14T11:57:14;97272.16;;;9.35;70.25
59531;BME280;45349;48.692;8.186;2023-03-14T11:59:48;97279.91;;;9.58;68.00
59531;BME280;45349;48.692;8.186;2023-03-14T12:02:22;97255.00;;;9.55;66.00
59531;BME280;45349;48.692;8.186;2023-03-14T12:05:13;97251.63;;;9.70;72.25
59531;BME280;45349;48.692;8.186;2023-03-14T12:08:02;97290.13;;;9.59;69.02
59531;BME280;45349;48.692;8.186;2023-03-14T12:10:39;97314.03;;;9.48;67.73
59531;BME280;45349;48.692;8.186;2023-03-14T12:13:08;97311.91;;;9.28;68.65
59531;BME280;45349;48.692;8.186;2023-03-14T12:15:39;97314.38;;;9.45;68.17
59531;BME280;45349;48.692;8.186;2023-03-14T12:18:19;97322.84;;;9.24;63.12
59531;BME280;45349;48.692;8.186;2023-03-14T12:20:51;97323.06;;;9.37;66.32
59531;BME280;45349;48.692;8.186;2023-03-14T12:23:19;97301.72;;;9.19;61.31
59531;BME280;45349;48.692;8.186;2023-03-14T12:25:46;97309.88;;;8.92;61.80
59531;BME280;45349;48.692;8.186;2023-03-14T12:28:18;97328.50;;;9.04;64.09
59531;BME280;45349;48.692;8.186;2023-03-14T12:30:45;97332.22;;;9.33;62.21
59531;BME280;45349;48.692;8.186;2023-03-14T12:33:34;97323.91;;;9.53;61.28
59531;BME280;45349;48.692;8.186;2023-03-14T12:36:18;97329.16;;;9.29;61.34
59531;BME280;45349;48.692;8.186;2023-03-14T12:41:38;97343.25;;;9.35;61.50
59531;BME280;45349;48.692;8.186;2023-03-14T12:47:53;97385.16;;;9.25;59.18
59531;BME280;45349;48.692;8.186;2023-03-14T12:50:33;97385.69;;;8.89;59.04
59531;BME280;45349;48.692;8.186;2023-03-14T12:53:31;97382.09;;;8.59;58.66
59531;BME280;45349;48.692;8.186;2023-03-14T12:56:06;97402.44;;;8.47;58.96
59531;BME280;45349;48.692;8.186;2023-03-14T12:58:39;97400.00;;;8.53;59.76
59531;BME280;45349;48.692;8.186;2023-03-14T13:01:16;97430.88;;;8.56;60.39
59531;BME280;45349;48.692;8.186;2023-03-14T13:03:45;97449.84;;;8.74;60.19
59531;BME280;45349;48.692;8.186;2023-03-14T13:06:48;97444.97;;;8.70;56.68
59531;BME280;45349;48.692;8.186;2023-03-14T13:09:35;97463.53;;;8.59;56.41
59531;BME280;45349;48.692;8.186;2023-03-14T13:12:16;97445.16;;;8.69;53.97
59531;BME280;45349;48.692;8.186;2023-03-14T13:14:45;97457.91;;;8.87;54.97
59531;BME280;45349;48.692;8.186;2023-03-14T13:17:13;97459.88;;;8.85;54.10
59531;BME280;45349;48.692;8.186;2023-03-14T13:19:40;97481.69;;;8.76;54.03
59531;BME280;45349;48.692;8.186;2023-03-14T13:22:19;97480.53;;;8.86;54.33
59531;BME280;45349;48.692;8.186;2023-03-14T13:24:46;97487.84;;;8.91;55.57
59531;BME280;45349;48.692;8.186;2023-03-14T13:27:17;97506.97;;;9.07;53.89
59531;BME280;45349;48.692;8.186;2023-03-14T13:29:48;97498.16;;;8.68;54.29
59531;BME280;45349;48.692;8.186;2023-03-14T13:32:17;97507.75;;;8.59;52.77